• Join FlightAware (Why Join?)
  • Login
  • US Flag GB Flag 
09:34 EDT


 

Airport Tracker/Info


-or-


 

Live Flight TrackerFlight Track Log ✈ DAL268 ✈ 12-May-2013 ✈ KJFK - LLBG / TLV

Flight Track Log - Related Links

Times and Time Zones

All times are in EDT time to prevent confusion due to time zone crossing. See the DAL268 flight status page for this flight to view local times or setup timezone preferences in your user account.

Time Position Orientation Groundspeed Altitude Reporting Facility
EDT Latitude Longitude Course Direction KTS MPH feet Rate Location/Type
00:44 40.6500 -73.8150 300° West 163 188 600  Level FlightAware
00:44 40.6530 -73.8290 286° West 171 197 1,100 2,100 Climbing FlightAware
00:44 40.6470 -73.8550 253° West 186 214 2,000 2,220 Climbing FlightAware
00:45 40.6360 -73.8670 220° Southwest 189 217 2,600 1,680 Climbing FlightAware
00:45 40.6110 -73.8800 202° Southwest 229 264 3,300 1,320 Climbing FlightAware
00:45 40.6000 -73.8770 168° South 246 283 3,500 720 Climbing FlightAware
00:45 40.5840 -73.8630 146° Southeast 277 319 3,600 1,200 Climbing FlightAware
00:46 40.5740 -73.8420 122° Southeast 281 323 4,100 1,560 Climbing FlightAware
00:46 40.5710 -73.8180 99° East 289 333 4,400 960 Climbing FlightAware
00:46 40.5770 -73.7900 74° East 297 342 4,600 1,200 Climbing FlightAware
00:46 40.5870 -73.7690 58° Northeast 299 344 5,000 1,200 Climbing FlightAware
00:47 40.6110 -73.7320 49° Northeast 313 360 5,400 1,800 Climbing FlightAware
00:47 40.6240 -73.7100 52° Northeast 309 356 6,200 3,300 Climbing FlightAware
00:48 40.6460 -73.6710 53° Northeast 307 353 7,600 2,700 Climbing FlightAware
00:48 40.6760 -73.6300 46° Northeast 310 357 8,700 2,280 Climbing FlightAware
00:48 40.6844 -73.6232 32° Northeast 311 358 9,000 2,760 Climbing FlightAware ADS-B
00:48 40.6963 -73.6146 29° Northeast 311 358 9,400 2,040 Climbing FlightAware ADS-B
00:49 40.7419 -73.5845 27° Northeast 327 376 10,500 1,260 Climbing FlightAware ADS-B
00:50 40.8360 -73.5220 27° Northeast 391 450 11,500 1,260 Climbing FlightAware
00:51 40.9030 -73.4760 27° Northeast 410 472 12,800 1,980 Climbing FlightAware
00:51 40.9187 -73.4655 27° Northeast 414 476 13,100 1,620 Climbing FlightAware ADS-B
00:51 40.9747 -73.4268 28° Northeast 435 501 13,900 1,500 Climbing FlightAware ADS-B
00:52 41.0319 -73.3865 28° Northeast 450 518 14,700 1,560 Climbing FlightAware ADS-B
00:52 41.0928 -73.3440 28° Northeast 466 536 15,600 1,740 Climbing FlightAware ADS-B
00:53 41.1987 -73.2705 28° Northeast 471 542 17,300 1,740 Climbing FlightAware ADS-B
00:54 41.3039 -73.1976 27° Northeast 483 556 18,700 1,620 Climbing FlightAware ADS-B
00:54 41.3409 -73.1716 28° Northeast 503 579 19,200 1,500 Climbing FlightAware ADS-B
00:55 41.4058 -73.0943 42° Northeast 523 602 20,100 1,320 Climbing FlightAware ADS-B
00:55 41.4204 -73.0640 57° Northeast 524 603 20,300 1,440 Climbing FlightAware ADS-B
00:56 41.4890 -72.9080 60° Northeast 535 616 21,800 1,500 Climbing FlightAware
00:57 41.5480 -72.7770 59° Northeast 547 629 22,900 960 Climbing FlightAware
00:58 41.5990 -72.6890 52° Northeast 550 633 23,100 900 Climbing FlightAware
00:59 41.7140 -72.5580 40° Northeast 564 649 24,900 1,260 Climbing FlightAware
01:00 41.9430 -72.3130 38° Northeast 590 679 26,800 1,380 Climbing FlightAware
01:01 42.0240 -72.2250 39° Northeast 598 688 27,500 1,020 Climbing FlightAware
01:02 42.1380 -72.1000 39° Northeast 608 700 28,300 300 Climbing FlightAware
01:05 42.3639 -71.6549 55° Northeast  Level Estimated
01:06 42.4466 -71.4902 56° Northeast  Level Estimated
01:07 42.5291 -71.3251 56° Northeast  Level Estimated
01:08 42.6114 -71.1596 56° Northeast  Level Estimated
01:09 42.6934 -70.9937 56° Northeast  Level Estimated
01:10 42.7751 -70.8273 56° Northeast  Level Estimated
01:11 42.8567 -70.6604 56° Northeast  Level Estimated
01:11 43.2460 -70.7850 56° Northeast 584 672 31,000  Level FlightAware
01:11 43.3330 -70.6790 42° Northeast 584 672 31,000  Level FlightAware
01:12 43.4140 -70.5800 42° Northeast 584 672 31,000  Level FlightAware
01:13 43.4980 -70.4770 42° Northeast 585 673 31,000  Level FlightAware
01:13 43.5730 -70.3850 42° Northeast 586 674 31,000  Level FlightAware
01:14 43.6790 -70.2550 42° Northeast 585 673 31,000  Level FlightAware
01:15 43.7660 -70.1480 42° Northeast 589 678 31,000  Level FlightAware
01:16 43.8480 -70.0460 42° Northeast 588 677 31,000  Level FlightAware
01:16 43.9370 -69.9340 42° Northeast 588 677 31,000  Level FlightAware
01:17 44.0170 -69.8310 43° Northeast 588 677 31,000  Level FlightAware
01:18 44.0960 -69.7300 43° Northeast 589 678 31,000  Level FlightAware
01:18 44.1900 -69.6120 42° Northeast 590 679 31,000  Level FlightAware
01:19 44.2700 -69.5090 43° Northeast 588 677 31,000  Level FlightAware
01:20 44.3580 -69.3970 42° Northeast 591 680 31,000  Level FlightAware
01:20 44.4320 -69.3020 42° Northeast 591 680 31,000  Level FlightAware
01:21 44.5200 -69.1900 42° Northeast 592 681 31,000  Level FlightAware
01:22 44.6110 -69.0720 43° Northeast 592 681 31,000  Level FlightAware
01:23 44.6900 -68.9690 43° Northeast 593 682 31,000  Level FlightAware
01:23 44.7720 -68.8620 43° Northeast 592 681 31,000  Level FlightAware
01:24 44.8640 -68.7420 43° Northeast 590 679 31,000  Level FlightAware
01:25 44.9430 -68.6380 43° Northeast 590 679 31,000  Level FlightAware
01:25 45.0330 -68.5200 43° Northeast 590 679 31,000  Level FlightAware
01:26 45.1120 -68.4150 43° Northeast 590 679 31,000  Level FlightAware
01:27 45.2020 -68.2950 43° Northeast 589 678 31,000  Level FlightAware
01:27 45.2820 -68.1880 43° Northeast 591 680 31,000  Level FlightAware
01:28 45.3600 -68.0840 43° Northeast 586 674 31,000  Level FlightAware
01:29 45.4480 -67.9640 44° Northeast 585 673 31,000  Level FlightAware
01:30 45.5290 -67.8550 43° Northeast 584 672 31,000  Level FlightAware
01:30 45.6160 -67.7370 43° Northeast 583 671 31,000  Level FlightAware
01:31 45.6970 -67.6280 43° Northeast 582 670 31,000  Level FlightAware
01:32 45.7740 -67.5230 44° Northeast 580 667 31,000  Level FlightAware
01:32 45.8630 -67.4020 43° Northeast 582 670 31,000  Level FlightAware
01:33 45.9410 -67.2940 44° Northeast 579 666 31,000  Level FlightAware
01:34 46.0090 -67.2000 44° Northeast 580 667 31,000  Level FlightAware
01:34 46.0870 -67.0940 43° Northeast 580 667 31,000  Level FlightAware
01:35 46.1840 -66.9590 44° Northeast 580 667 31,000  Level FlightAware
01:36 46.2680 -66.8420 44° Northeast 581 669 31,000  Level FlightAware
01:37 46.3400 -66.7400 44° Northeast 581 669 31,000  Level FlightAware
01:37 46.4060 -66.6480 44° Northeast 581 669 31,000  Level FlightAware
01:38 46.4720 -66.5560 44° Northeast 581 669 31,000  Level FlightAware
01:39 46.5540 -66.4410 44° Northeast 581 669 31,000  Level FlightAware
01:39 46.6200 -66.3490 44° Northeast 581 669 31,000  Level FlightAware
01:40 46.6860 -66.2560 44° Northeast 581 669 31,000  Level FlightAware
01:41 46.7510 -66.1640 44° Northeast 581 669 31,000  Level FlightAware
01:41 46.8170 -66.0710 44° Northeast 581 669 31,000  Level FlightAware
01:42 46.8990 -65.9550 44° Northeast 581 669 31,000  Level FlightAware
01:43 46.9490 -65.8850 44° Northeast 581 669 31,000  Level FlightAware
01:44 47.0310 -65.7690 44° Northeast 581 669 31,000  Level FlightAware
01:44 47.0960 -65.6750 45° Northeast 581 669 31,000  Level FlightAware
01:45 47.1620 -65.5820 44° Northeast 581 669 31,000  Level FlightAware
01:46 47.2280 -65.4890 44° Northeast 581 669 31,000  Level FlightAware
01:46 47.3833 -65.1667 44° Northeast 570 656 31,000  Level Moncton Center
01:47 47.4833 -65.0167 45° Northeast 570 656 31,000  Level Moncton Center
01:48 47.6000 -64.8500 44° Northeast 570 656 31,000  Level Moncton Center
01:49 47.7167 -64.6667 47° Northeast 580 667 31,000  Level Moncton Center
01:50 47.8333 -64.5000 44° Northeast 580 667 31,000  Level Moncton Center
01:51 47.9333 -64.3167 51° Northeast 580 667 31,000  Level Moncton Center
01:52 48.0500 -64.1500 44° Northeast 580 667 31,000  Level Moncton Center
01:52 48.1167 -64.0667 40° Northeast 580 667 31,000  Level Gander Center
01:53 48.1667 -63.9667 53° Northeast 580 667 31,000  Level Moncton Center
01:54 48.2667 -63.8000 48° Northeast 570 656 31,000  Level Moncton Center
01:55 48.3833 -63.6167 46° Northeast 570 656 31,000  Level Moncton Center
01:56 48.4833 -63.4667 45° Northeast 570 656 31,000  Level Moncton Center
01:57 48.6000 -63.2500 51° Northeast 570 656 31,000  Level Moncton Center
01:58 48.7000 -63.0833 48° Northeast 570 656 31,000  Level Moncton Center
01:58 48.7500 -63.0000 48° Northeast 580 667 31,000  Level Gander Center
01:59 48.8500 -62.8333 48° Northeast 570 656 31,000  Level Gander Center
02:00 48.9333 -62.7333 38° Northeast 570 656 31,000  Level Moncton Center
02:01 49.0333 -62.5500 50° Northeast 570 656 31,000  Level Moncton Center
02:01 49.0833 -62.4833 41° Northeast 570 656 31,000  Level Gander Center
02:02 49.1833 -62.3000 50° Northeast 560 644 31,000  Level Gander Center
02:03 49.3000 -62.1333 43° Northeast 570 656 31,000  Level Gander Center
02:04 49.3500 -62.0000 60° Northeast 570 656 31,000  Level Moncton Center
02:05 49.4500 -61.8500 44° Northeast 560 644 31,000  Level Moncton Center
02:06 49.5667 -61.6667 46° Northeast 570 656 31,000  Level Moncton Center
02:06 49.6000 -61.5833 58° Northeast 570 656 31,000  Level Gander Center
02:07 49.7167 -61.3833 48° Northeast 560 644 31,000  Level Gander Center
02:08 49.7667 -61.3167 41° Northeast 560 644 31,000  Level Moncton Center
02:08 49.8167 -61.2000 56° Northeast 570 656 31,000  Level Gander Center
02:09 49.8833 -61.1167 39° Northeast 570 656 31,000  Level Moncton Center
02:10 49.9833 -60.9333 50° Northeast 560 644 31,000  Level Moncton Center
02:10 50.0167 -60.8333 63° Northeast 570 656 31,000  Level Gander Center
02:11 50.1333 -60.6500 45° Northeast 570 656 31,000  Level Gander Center
02:12 50.1833 -60.5500 52° Northeast 570 656 31,000  Level Moncton Center
02:13 50.3000 -60.3667 45° Northeast 570 656 31,000  Level Moncton Center
02:13 50.3333 -60.2833 58° Northeast 570 656 31,000  Level Gander Center
02:14 50.4500 -60.1000 45° Northeast 570 656 31,000  Level Gander Center
02:15 50.5500 -59.9167 49° Northeast 580 667 31,000  Level Gander Center
02:16 50.6667 -59.7000 50° Northeast 570 656 31,000  Level Gander Center
02:17 50.7500 -59.5167 54° Northeast 570 656 31,000  Level Gander Center
02:18 50.8500 -59.3167 52° Northeast 560 644 31,000  Level Gander Center
02:19 50.9500 -59.1333 49° Northeast 570 656 31,000  Level Gander Center
02:20 51.0167 -59.0500 38° Northeast 560 644 31,000  Level Moncton Center
02:21 51.1167 -58.8500 51° Northeast 560 644 31,000  Level Moncton Center
02:21 51.1667 -58.7500 51° Northeast 560 644 31,000  Level Gander Center
02:22 51.2500 -58.5500 56° Northeast 560 644 31,000  Level Gander Center
02:23 51.3500 -58.3667 49° Northeast 560 644 31,000  Level Gander Center
02:24 51.4167 -58.2833 38° Northeast 560 644 31,000  Level Moncton Center
02:25 51.5000 -58.0833 56° Northeast 560 644 31,000  Level Moncton Center
02:25 51.5500 -57.9667 55° Northeast 560 644 31,000  Level Gander Center
02:26 51.6500 -57.7833 49° Northeast 570 656 31,000  Level Gander Center
02:27 51.7500 -57.5833 51° Northeast 570 656 31,000  Level Gander Center
02:28 51.7833 -57.5000 57° Northeast 570 656 31,000  Level Gander Center
02:29 51.8833 -57.3000 51° Northeast 570 656 31,000  Level Gander Center
02:29 51.9333 -57.1833 55° Northeast 570 656 31,000  Level Gander Center
02:30 51.9833 -57.1000 46° Northeast 560 644 31,000  Level Gander Center
02:30 52.0500 -56.9833 47° Northeast 560 644 31,000  Level Gander Center
02:31 52.0833 -56.8667 65° Northeast 570 656 31,000  Level Moncton Center
02:32 52.1833 -56.6667 51° Northeast 570 656 31,000  Level Moncton Center
02:32 52.2333 -56.5500 55° Northeast 570 656 31,000  Level Gander Center
02:33 52.3000 -56.3500 61° Northeast 560 644 31,000 180 Level Gander Center
02:34 52.3667 -56.2167 51° Northeast 560 644 31,300 660 Climbing Moncton Center
02:34 52.3833 -56.1333 72° East 560 644 31,700 1,020 Climbing Gander Center
02:35 52.4333 -56.0333 51° Northeast 560 644 32,200 900 Climbing Gander Center
02:36 52.5000 -55.8167 63° Northeast 560 644 33,000 480 Climbing Gander Center
02:36 52.5500 -55.6667 61° Northeast 560 644 33,000  Level Gander Center
02:37 52.5667 -55.5833 72° East 560 644 33,000  Level Gander Center
02:37 52.6167 -55.4333 61° Northeast 560 644 33,000  Level Gander Center
02:38 52.6500 -55.3333 61° Northeast 570 656 33,000  Level Moncton Center
02:39 52.7333 -55.1000 59° Northeast 560 644 33,000  Level Moncton Center
02:39 52.7667 -55.0000 61° Northeast 560 644 33,000  Level Gander Center
02:40 52.8333 -54.7667 65° Northeast 560 644 33,000  Level Gander Center
02:41 52.9000 -54.5333 65° Northeast 560 644 33,000  Level Gander Center
02:42 52.9833 -54.3333 55° Northeast 560 644 33,000  Level Gander Center
02:43 53.0667 -54.1000 59° Northeast 560 644 33,000  Level Gander Center
02:44 53.1167 -53.8667 67° East 560 644 33,000  Level Gander Center
02:45 53.0667 -54.0667 67° East 549 632 33,000  Level ETMS Enhanced Traffic Management System
02:45 53.1667 -53.6000 73° East 560 644 33,000  Level Gander Center
02:46 53.2333 -53.3667 64° Northeast 560 644 33,000  Level Gander Center
02:47 53.2833 -53.1333 70° East 560 644 33,000  Level Gander Center
02:48 53.3333 -52.9000 70° East 550 633 33,000  Level Gander Center
02:49 53.4000 -52.6667 64° Northeast 560 644 33,000  Level Gander Center
02:50 53.4500 -52.4000 72° East 560 644 33,000  Level Gander Center
02:51 53.5000 -52.1667 70° East 560 644 33,000  Level Gander Center
02:52 53.5667 -51.9167 66° East 560 644 33,000  Level Gander Center
02:53 53.6167 -51.6833 70° East 560 644 33,000  Level Gander Center
02:54 53.6833 -51.4333 66° East 560 644 33,000  Level Gander Center
02:55 53.7333 -51.1667 72° East 560 644 33,000  Level Gander Center
02:56 53.7833 -50.9333 70° East 560 644 33,000  Level Gander Center
02:57 53.8333 -50.6833 71° East 550 633 33,000  Level Gander Center
02:58 53.8833 -50.4500 70° East 550 633 33,000  Level Gander Center
02:59 53.9000 -50.3667 71° East 550 633 33,000  Level Gander Center
02:59 53.9333 -50.2000 71° East 550 633 33,000  Level Gander Center
03:00 53.9833 -49.9667 70° East 550 633 33,000  Level Gander Center
03:01 54.0000 -50.0000 76° East 572 658 33,000  Level ETMS Enhanced Traffic Management System
03:09 54.2856 -47.8822 78° East 572 658 33,000  Level FlightAware Transoceanic
03:10 54.3186 -47.6155 78° East 572 658 33,000  Level FlightAware Transoceanic
03:11 54.3511 -47.3484 78° East 572 658 33,000  Level FlightAware Transoceanic
03:12 54.3830 -47.0808 79° East 572 658 33,000  Level FlightAware Transoceanic
03:13 54.4143 -46.8128 79° East 572 658 33,000  Level FlightAware Transoceanic
03:14 54.4450 -46.5444 79° East 572 658 33,000  Level FlightAware Transoceanic
03:15 54.4751 -46.2756 79° East 572 658 33,000  Level FlightAware Transoceanic
03:16 54.5046 -46.0065 79° East 572 658 33,000  Level FlightAware Transoceanic
03:17 54.5335 -45.7369 80° East 572 658 33,000  Level FlightAware Transoceanic
03:18 54.5619 -45.4669 80° East 572 658 33,000  Level FlightAware Transoceanic
03:19 54.5896 -45.1966 80° East 572 658 33,000  Level FlightAware Transoceanic
03:20 54.6167 -44.9259 80° East 572 658 33,000  Level FlightAware Transoceanic
03:21 54.6432 -44.6549 81° East 572 658 33,000  Level FlightAware Transoceanic
03:22 54.6691 -44.3835 81° East 572 658 33,000  Level FlightAware Transoceanic
03:23 54.6944 -44.1118 81° East 572 658 33,000  Level FlightAware Transoceanic
03:24 54.7190 -43.8397 81° East 572 658 33,000  Level FlightAware Transoceanic
03:25 54.7431 -43.5673 81° East 572 658 33,000  Level FlightAware Transoceanic
03:26 54.7666 -43.2946 82° East 572 658 33,000  Level FlightAware Transoceanic
03:27 54.7894 -43.0216 82° East 572 658 33,000  Level FlightAware Transoceanic
03:28 54.8116 -42.7483 82° East 572 658 33,000  Level FlightAware Transoceanic
03:29 54.8333 -42.4747 82° East 572 658 33,000  Level FlightAware Transoceanic
03:30 54.8543 -42.2007 83° East 572 658 33,000  Level FlightAware Transoceanic
03:31 54.8747 -41.9266 83° East 572 658 33,000  Level FlightAware Transoceanic
03:32 54.8944 -41.6521 83° East 572 658 33,000  Level FlightAware Transoceanic
03:33 54.9136 -41.3774 83° East 572 658 33,000  Level FlightAware Transoceanic
03:34 54.9321 -41.1024 83° East 572 658 33,000  Level FlightAware Transoceanic
03:35 54.9500 -40.8271 84° East 572 658 33,000  Level FlightAware Transoceanic
03:36 54.9673 -40.5517 84° East 572 658 33,000  Level FlightAware Transoceanic
03:37 54.9840 -40.2759 84° East 572 658 33,000  Level FlightAware Transoceanic
03:38 54.9989 -40.0192 84° East  Level FlightAware Approximate
03:39 55.0134 -39.7623 84° East  Level FlightAware Approximate
03:40 55.0088 -39.7810 86° East  Level FlightAware Approximate
03:41 55.0186 -39.5234 86° East  Level FlightAware Approximate
03:42 55.0278 -39.2657 86° East  Level FlightAware Approximate
03:43 55.0365 -39.0078 87° East  Level FlightAware Approximate
03:44 55.0447 -38.7499 87° East  Level FlightAware Approximate
03:45 55.0523 -38.4918 87° East  Level FlightAware Approximate
03:46 55.0593 -38.2336 87° East  Level FlightAware Approximate
03:47 55.0659 -37.9754 87° East  Level FlightAware Approximate
03:48 55.0718 -37.7171 88° East  Level FlightAware Approximate
03:49 55.0773 -37.4587 88° East  Level FlightAware Approximate
03:50 55.0822 -37.2002 88° East  Level FlightAware Approximate
03:51 55.0866 -36.9417 88° East  Level FlightAware Approximate
03:52 55.0904 -36.6831 88° East  Level FlightAware Approximate
03:53 55.0937 -36.4245 89° East  Level FlightAware Approximate
03:54 55.0965 -36.1658 89° East  Level FlightAware Approximate
03:55 55.0987 -35.9071 89° East  Level FlightAware Approximate
03:56 55.1004 -35.6484 89° East  Level FlightAware Approximate
03:57 55.1015 -35.3896 89° East  Level FlightAware Approximate
03:58 55.1021 -35.1309 90° East  Level FlightAware Approximate
03:59 55.1021 -34.8721 90° East  Level FlightAware Approximate
04:00 55.1016 -34.6134 90° East  Level FlightAware Approximate
04:01 55.1005 -34.3546 90° East  Level FlightAware Approximate
04:02 55.0989 -34.0959 91° East  Level FlightAware Approximate
04:03 55.0967 -33.8372 91° East  Level FlightAware Approximate
04:04 55.0940 -33.5786 91° East  Level FlightAware Approximate
04:05 55.0907 -33.3199 91° East  Level FlightAware Approximate
04:06 55.0869 -33.0614 91° East  Level FlightAware Approximate
04:07 55.0826 -32.8028 92° East  Level FlightAware Approximate
04:08 55.0776 -32.5443 92° East  Level FlightAware Approximate
04:09 55.0722 -32.2859 92° East  Level FlightAware Approximate
04:10 55.0662 -32.0276 92° East  Level FlightAware Approximate
04:11 55.0597 -31.7694 92° East  Level FlightAware Approximate
04:12 55.0526 -31.5112 93° East  Level FlightAware Approximate
04:13 55.0449 -31.2532 93° East  Level FlightAware Approximate
04:14 55.0367 -30.9952 93° East  Level FlightAware Approximate
04:15 55.0280 -30.7373 93° East  Level FlightAware Approximate
04:16 55.0187 -30.4796 93° East  Level FlightAware Approximate
04:17 55.0089 -30.2220 94° East  Level FlightAware Approximate
04:18 54.9978 -29.9646 96° East  Level FlightAware Approximate
04:18 55.0000 -30.0000 96° East 557 641 33,000  Level ETMS Enhanced Traffic Management System
04:19 54.9815 -29.7082 96° East  Level FlightAware Approximate
04:20 54.9648 -29.4519 96° East  Level FlightAware Approximate
04:21 54.9474 -29.1959 97° East  Level FlightAware Approximate
04:22 54.9296 -28.9400 97° East  Level FlightAware Approximate
04:23 54.9112 -28.6845 97° East  Level FlightAware Approximate
04:24 54.8586 -27.8570 97° East 557 641 33,000  Level FlightAware Transoceanic
04:25 54.8383 -27.5902 98° East 557 641 33,000  Level FlightAware Transoceanic
04:26 54.8174 -27.3237 98° East 557 641 33,000  Level FlightAware Transoceanic
04:27 54.7959 -27.0575 98° East 557 641 33,000  Level FlightAware Transoceanic
04:28 54.7738 -26.7915 98° East 557 641 33,000  Level FlightAware Transoceanic
04:29 54.7512 -26.5259 99° East 557 641 33,000  Level FlightAware Transoceanic
04:30 54.7280 -26.2606 99° East 557 641 33,000  Level FlightAware Transoceanic
04:31 54.7042 -25.9956 99° East 557 641 33,000  Level FlightAware Transoceanic
04:32 54.6798 -25.7309 99° East 557 641 33,000  Level FlightAware Transoceanic
04:33 54.6548 -25.4665 99° East 557 641 33,000  Level FlightAware Transoceanic
04:34 54.6293 -25.2024 100° East 557 641 33,000  Level FlightAware Transoceanic
04:35 54.6032 -24.9387 100° East 557 641 33,000  Level FlightAware Transoceanic
04:36 54.5765 -24.6753 100° East 557 641 33,000  Level FlightAware Transoceanic
04:37 54.5493 -24.4123 100° East 557 641 33,000  Level FlightAware Transoceanic
04:38 54.5214 -24.1496 100° East 557 641 33,000  Level FlightAware Transoceanic
04:39 54.4930 -23.8873 101° East 557 641 33,000  Level FlightAware Transoceanic
04:40 54.4641 -23.6253 101° East 557 641 33,000  Level FlightAware Transoceanic
04:41 54.4346 -23.3637 101° East 557 641 33,000  Level FlightAware Transoceanic
04:42 54.4045 -23.1025 101° East 557 641 33,000  Level FlightAware Transoceanic
04:43 54.3738 -22.8417 102° East 557 641 33,000  Level FlightAware Transoceanic
04:44 54.3426 -22.5813 102° East 557 641 33,000  Level FlightAware Transoceanic
04:45 54.3109 -22.3213 102° East 557 641 33,000  Level FlightAware Transoceanic
04:46 54.2785 -22.0617 102° East 557 641 33,000  Level FlightAware Transoceanic
04:47 54.2457 -21.8025 102° East 557 641 33,000  Level FlightAware Transoceanic
04:48 54.2122 -21.5437 103° East 557 641 33,000  Level FlightAware Transoceanic
04:49 54.1782 -21.2853 103° East 557 641 33,000  Level FlightAware Transoceanic
04:50 54.1437 -21.0274 103° East 557 641 33,000  Level FlightAware Transoceanic
04:51 54.1086 -20.7699 103° East 557 641 33,000  Level FlightAware Transoceanic
04:52 54.0729 -20.5128 103° East 557 641 33,000  Level FlightAware Transoceanic
04:53 54.0367 -20.2562 104° East 557 641 33,000  Level FlightAware Transoceanic
04:54 54.0017 -20.0114 104° East  Level FlightAware Approximate
04:55 53.9660 -19.7670 104° East  Level FlightAware Approximate
04:56 53.9835 -19.7733 97° East  Level FlightAware Approximate
04:57 53.9655 -19.5315 97° East  Level FlightAware Approximate
04:58 53.9469 -19.2898 97° East  Level FlightAware Approximate
04:59 53.9279 -19.0483 98° East  Level FlightAware Approximate
05:00 53.9086 -18.8088 98° East  Level FlightAware Approximate
05:01 53.8887 -18.5694 98° East  Level FlightAware Approximate
05:02 53.8684 -18.3303 98° East  Level FlightAware Approximate
05:03 53.8476 -18.0914 98° East  Level FlightAware Approximate
05:04 53.8263 -17.8528 98° East  Level FlightAware Approximate
05:05 53.8046 -17.6144 99° East  Level FlightAware Approximate
05:06 53.7824 -17.3762 99° East  Level FlightAware Approximate
05:07 53.7597 -17.1383 99° East  Level FlightAware Approximate
05:08 53.7365 -16.9007 99° East  Level FlightAware Approximate
05:09 53.7129 -16.6633 99° East  Level FlightAware Approximate
05:10 53.6888 -16.4263 100° East  Level FlightAware Approximate
05:11 53.6642 -16.1894 100° East  Level FlightAware Approximate
05:12 53.6392 -15.9529 100° East  Level FlightAware Approximate
05:13 53.6137 -15.7166 100° East  Level FlightAware Approximate
05:14 53.5877 -15.4806 100° East  Level FlightAware Approximate
05:15 53.5613 -15.2450 101° East  Level FlightAware Approximate
05:16 53.5344 -15.0096 101° East  Level FlightAware Approximate
05:16 53.9070 -13.9540 102° East 595 685 33,000  Level FlightAware
05:17 53.5064 -14.7747 101° East  Level FlightAware Approximate
05:18 53.4779 -14.5402 101° East  Level FlightAware Approximate
05:19 53.4489 -14.3060 102° East  Level FlightAware Approximate
05:19 53.7780 -13.2120 106° East 589 678 33,000  Level FlightAware
05:21 53.7254 -12.8260 103° East  Level Estimated
05:21 53.6930 -12.7320 103° East 581 669 33,000  Level FlightAware
05:22 53.6100 -12.2750 103° East 577 664 33,000  Level FlightAware
05:23 53.6333 -12.3082 103° East  Level Estimated
05:23 53.5670 -12.0410 107° East 574 661 33,000  Level FlightAware
05:25 53.4940 -11.6560 108° East 569 655 33,000  Level FlightAware
05:26 53.4580 -11.4650 107° East 568 654 33,000  Level FlightAware
05:26 53.4260 -11.2980 108° East 570 656 33,000  Level FlightAware
05:27 53.3890 -11.1060 108° East 571 657 33,000  Level FlightAware
05:28 53.3560 -10.9420 109° East 570 656 33,000  Level FlightAware
05:28 53.3190 -10.7530 108° East 571 657 33,000  Level FlightAware
05:29 53.2860 -10.5870 108° East 571 657 33,000  Level FlightAware
05:30 53.2520 -10.4200 109° East 570 656 33,000  Level FlightAware
05:31 53.2140 -10.2310 108° East 569 655 33,000  Level FlightAware
05:31 53.1800 -10.0650 109° East 569 655 33,000  Level FlightAware
05:32 53.1450 -9.8950 109° East 567 652 33,000  Level FlightAware
05:33 53.1060 -9.7120 109° East 567 652 33,000  Level FlightAware
05:33 53.0710 -9.5470 109° East 570 656 33,000  Level FlightAware
05:34 53.0340 -9.3750 110° East 570 656 33,000  Level FlightAware
05:35 52.9960 -9.1980 110° East 568 654 33,000  Level FlightAware
05:35 52.9540 -9.0120 110° East 567 652 33,000 -1,500 Level FlightAware
05:36 52.9309 -8.9452 110° East 484 557 31,500 -2,760 Descending FlightAware UK
05:36 52.9148 -8.8713 110° East 482 555 31,500 3,600 Level FlightAware UK
05:36 52.9200 -8.8540 110° East 565 650 33,000  Climbing FlightAware
05:36 52.8936 -8.7732 110° East 482 555 31,500 -2,580 Descending FlightAware UK
05:37 52.8782 -8.6997 109° East 482 555 31,500 3,900 Level FlightAware UK
05:37 52.8840 -8.6850 109° East 565 650 33,000  Climbing FlightAware
05:37 52.8575 -8.6013 109° East 482 555 31,500 -2,460 Descending FlightAware UK
05:37 52.8420 -8.5277 109° East 484 557 31,500 3,420 Level FlightAware UK
05:38 52.8450 -8.5010 109° East 564 649 33,000  Climbing FlightAware
05:38 52.8213 -8.4296 109° East 484 557 31,500 -2,700 Descending FlightAware UK
05:38 52.8055 -8.3555 109° East 482 555 31,500 3,720 Level FlightAware UK
05:38 52.8100 -8.3350 109° East 563 648 33,000  Climbing FlightAware
05:39 52.7843 -8.2585 109° East 482 555 31,500 -2,520 Descending FlightAware UK
05:39 52.7683 -8.1860 110° East 482 555 31,500 4,080 Level FlightAware UK
05:39 52.7740 -8.1700 110° East 564 649 33,000  Climbing FlightAware
05:39 52.7469 -8.0896 110° East 484 557 31,500 -2,400 Descending FlightAware UK
05:40 52.7305 -8.0173 111° Southeast 482 555 31,500 3,600 Level FlightAware UK
05:40 52.7340 -7.9910 111° Southeast 564 649 33,000  Climbing FlightAware
05:40 52.7088 -7.9210 111° Southeast 482 555 31,500 -2,580 Descending FlightAware UK
05:40 52.6926 -7.8488 110° East 482 555 31,500 3,900 Level FlightAware UK
05:40 52.6970 -7.8280 110° East 559 643 33,000  Climbing FlightAware
05:41 52.6705 -7.7526 110° East 480 552 31,500 -2,460 Descending FlightAware UK
05:41 52.6538 -7.6808 111° Southeast 480 552 31,500 3,420 Level FlightAware UK
05:41 52.6560 -7.6500 111° Southeast 558 642 33,000  Climbing FlightAware
05:41 52.6313 -7.5855 111° Southeast 482 555 31,500 -2,700 Descending FlightAware UK
05:42 52.6140 -7.5145 112° Southeast 482 555 31,500 3,720 Level FlightAware UK
05:42 52.6170 -7.4880 112° Southeast 561 646 33,000  Climbing FlightAware
05:42 52.5908 -7.4201 112° Southeast 482 555 31,500 -2,520 Descending FlightAware UK
05:42 52.5736 -7.3492 112° Southeast 488 562 31,500 3,300 Level FlightAware UK
05:42 52.5740 -7.3110 112° Southeast 569 655 33,000  Climbing FlightAware
05:43 52.5504 -7.2535 112° Southeast 494 568 31,500 -2,760 Descending FlightAware UK
05:43 52.5323 -7.1793 112° Southeast 498 573 31,500 3,600 Level FlightAware UK
05:43 52.5350 -7.1520 112° Southeast 577 664 33,000  Climbing FlightAware
05:43 52.5085 -7.0813 112° Southeast 498 573 31,500 -2,580 Descending FlightAware UK
05:44 52.4907 -7.0083 112° Southeast 498 573 31,500 3,900 Level FlightAware UK
05:44 52.4950 -6.9860 112° Southeast 577 664 33,000  Climbing FlightAware
05:44 52.4669 -6.9112 112° Southeast 496 571 31,500 -2,460 Descending FlightAware UK
05:44 52.4492 -6.8384 112° Southeast 498 573 31,500 3,420 Level FlightAware UK
05:45 52.4540 -6.8160 112° Southeast 576 663 33,000  Climbing FlightAware
05:45 52.4256 -6.7413 112° Southeast 498 573 31,500 -2,700 Descending FlightAware UK
05:45 52.4078 -6.6685 112° Southeast 500 575 31,500 3,720 Level FlightAware UK
05:45 52.4080 -6.6310 112° Southeast 575 662 33,000  Climbing FlightAware
05:46 52.3844 -6.5715 112° Southeast 498 573 31,500 -2,520 Descending FlightAware UK
05:46 52.3665 -6.4990 112° Southeast 500 575 31,500 3,300 Level FlightAware UK
05:46 52.3660 -6.4570 112° Southeast 575 662 33,000  Climbing FlightAware
05:46 52.3426 -6.4026 112° Southeast 498 573 31,500 -2,760 Descending FlightAware UK
05:47 52.3248 -6.3303 112° Southeast 496 571 31,500 4,500 Level FlightAware UK
05:47 52.3300 -6.3100 112° Southeast 574 661 33,000  Climbing FlightAware
05:47 52.3069 -6.2582 112° Southeast 494 568 31,500 -2,700 Descending FlightAware UK
05:47 52.2889 -6.1862 112° Southeast 494 568 31,500 3,720 Level FlightAware UK
05:47 52.2890 -6.1460 112° Southeast 573 659 33,000  Climbing FlightAware
05:48 52.2651 -6.0901 112° Southeast 492 566 31,500 -2,520 Descending FlightAware UK
05:48 52.2471 -6.0183 112° Southeast 492 566 31,500 2,760 Level FlightAware UK
05:48 52.2400 -5.9500 112° Southeast 575 662 33,000  Climbing FlightAware
05:48 52.2194 -5.8957 112° Southeast 496 571 31,500 -2,700 Descending FlightAware UK
05:49 52.2071 -5.8198 105° East 496 571 31,500 3,720 Level FlightAware UK
05:49 52.2090 -5.7820 105° East 582 670 33,000  Climbing FlightAware
05:49 52.1918 -5.7180 105° East 496 571 31,500 -2,520 Descending FlightAware UK
05:49 52.1814 -5.6412 102° East 496 571 31,500 4,080 Level FlightAware UK
05:49 52.1850 -5.6100 102° East 582 670 33,000  Climbing FlightAware
05:50 52.1685 -5.5379 102° East 494 568 31,500 -2,400 Descending FlightAware UK
05:50 52.1589 -5.4608 101° East 494 568 31,500 3,600 Level FlightAware UK
05:50 52.1610 -5.4200 101° East 583 671 33,000  Climbing FlightAware
05:50 52.1460 -5.3581 101° East 496 571 31,500  Descending FlightAware UK
05:51 52.1380 -5.2490 101° East 581 669 33,000  Climbing FlightAware
05:51 52.1214 -5.1781 101° East 494 568 31,500 -2,460 Descending FlightAware UK
05:51 52.1107 -5.1015 103° East 494 568 31,500 3,420 Level FlightAware UK
05:52 52.1110 -5.0520 103° East 580 667 33,000  Climbing FlightAware
05:52 52.0964 -4.9998 103° East 492 566 31,500  Descending FlightAware UK
05:52 52.0870 -4.8840 103° East 579 666 33,000  Climbing FlightAware
05:53 52.0709 -4.8220 103° East 496 571 31,500 240 Descending FlightAware UK
05:53 52.0600 -4.6970 103° East 582 670 33,200 1,200 Climbing FlightAware
05:54 52.0338 -4.5686 103° East 502 578 32,700 1,800 Descending FlightAware UK
05:54 52.0350 -4.5290 103° East 575 662 34,400 1,440 Climbing FlightAware
05:54 52.0188 -4.4670 103° East 500 575 33,300 1,380 Descending FlightAware UK
05:54 52.0177 -4.4128 103° East 575 662 35,000 480 Climbing FlightAware ADS-B
05:54 52.0039 -4.3669 103° East 506 582 33,500  Descending FlightAware UK
05:55 51.9975 -4.2761 103° East 572 658 35,000  Climbing FlightAware ADS-B
05:55 51.9820 -4.2174 103° East 500 575 33,500  Descending FlightAware UK
05:55 51.9738 -4.1175 103° East 568 654 35,000  Climbing FlightAware ADS-B
05:56 51.9560 -4.0444 103° East 498 573 33,500  Descending FlightAware UK
05:56 51.9547 -3.9915 103° East 566 651 35,000  Climbing FlightAware ADS-B
05:56 51.9411 -3.9460 103° East 494 568 33,500  Descending FlightAware UK
05:56 51.9349 -3.8600 103° East 564 649 35,000  Climbing FlightAware ADS-B
05:57 51.9226 -3.8232 103° East 494 568 33,500 360 Descending FlightAware UK
05:57 51.9158 -3.7349 103° East 565 650 35,200 720 Climbing FlightAware ADS-B
05:57 51.8887 -3.6016 103° East 498 573 34,200 900 Descending FlightAware UK
05:58 51.8872 -3.5500 103° East 567 652 35,900 1,200 Climbing FlightAware ADS-B
05:58 51.8505 -3.3557 103° East 508 585 35,400 1,080 Descending FlightAware UK
05:59 51.8500 -3.3110 103° East 561 646 37,000 3,960 Climbing FlightAware
05:59 51.8375 -3.2344 105° East 567 652 37,000  Level FlightAware ADS-B
05:59 51.8169 -3.1046 104° East 561 646 37,000  Level FlightAware ADS-B
06:00 51.7969 -2.9810 105° East 559 643 37,000  Level FlightAware ADS-B
06:00 51.7760 -2.8524 105° East 555 639 37,000  Level FlightAware ADS-B
06:01 51.7556 -2.7254 105° East 554 638 37,000  Level FlightAware ADS-B
06:01 51.7348 -2.5984 105° East 554 638 37,000  Level FlightAware ADS-B
06:02 51.7150 -2.4770 105° East 553 636 37,000  Level FlightAware ADS-B
06:02 51.6952 -2.3570 105° East 552 635 37,000  Level FlightAware ADS-B
06:03 51.6733 -2.2267 105° East 550 633 37,000  Level FlightAware ADS-B
06:04 51.6502 -2.0898 105° East 550 633 37,000  Level FlightAware ADS-B
06:04 51.6295 -1.9696 105° East 550 633 37,000  Level FlightAware ADS-B
06:05 51.6082 -1.8467 106° East 551 634 37,000  Level FlightAware ADS-B
06:05 51.5861 -1.7206 106° East 553 636 37,000  Level FlightAware ADS-B
06:06 51.5625 -1.5878 106° East 553 636 37,000  Level FlightAware ADS-B
06:06 51.5409 -1.4664 106° East 554 638 37,000  Level FlightAware ADS-B
06:07 51.5199 -1.3480 106° East 553 636 37,000  Level FlightAware ADS-B
06:07 51.4969 -1.2141 105° East 553 636 37,000  Level FlightAware ADS-B
06:08 51.4794 -1.0920 103° East 553 636 37,000  Level FlightAware ADS-B
06:08 51.4629 -0.9707 102° East 552 635 37,000  Level FlightAware ADS-B
06:09 51.4464 -0.8449 102° East 551 634 37,000  Level FlightAware ADS-B
06:09 51.4293 -0.7135 102° East 551 634 37,000  Level FlightAware ADS-B
06:10 51.4135 -0.5905 102° East 552 635 37,000  Level FlightAware ADS-B
06:10 51.3979 -0.4700 102° East 552 635 37,000  Level FlightAware ADS-B
06:11 51.3822 -0.3475 102° East 552 635 37,000  Level FlightAware ADS-B
06:11 51.3655 -0.2129 101° East 551 634 37,000  Level FlightAware ADS-B
06:12 51.3495 -0.0816 101° East 552 635 37,000  Level FlightAware ADS-B
06:13 51.3345 0.0433 101° East 553 636 37,000  Level FlightAware ADS-B
06:13 51.3199 0.1663 101° East 554 638 37,000  Level FlightAware ADS-B
06:14 51.3055 0.2891 101° East 553 636 37,000  Level FlightAware ADS-B
06:14 51.2839 0.4647 101° East 553 636 37,000  Level FlightAware ADS-B
06:15 51.2682 0.5864 102° East 553 636 37,000  Level FlightAware ADS-B
06:15 51.2513 0.7153 102° East 551 634 37,000  Level FlightAware ADS-B
06:16 51.2345 0.8416 102° East 551 634 37,000  Level FlightAware ADS-B
06:16 51.2184 0.9628 102° East 551 634 37,000  Level FlightAware ADS-B
06:17 51.2009 1.0961 102° East 550 633 37,000  Level FlightAware ADS-B
06:18 51.1800 1.2510 102° East 550 633 37,000  Level FlightAware
06:18 51.1646 1.3810 101° East 552 635 37,000  Level FlightAware ADS-B
06:19 51.1520 1.5591 96° East 553 636 37,000  Level FlightAware ADS-B
06:20 51.1453 1.7126 94° East 552 635 37,000  Level FlightAware ADS-B
06:20 51.1371 1.8825 94° East 551 634 37,000  Level FlightAware ADS-B
06:21 51.1232 2.0130 100° East 547 629 37,000  Level FlightAware ADS-B
06:22 51.0903 2.2354 103° East 543 625 37,000  Level FlightAware ADS-B
06:22 51.0699 2.3664 104° East 542 624 37,000  Level FlightAware ADS-B
06:23 51.0410 2.5540 104° East 539 620 37,000  Level FlightAware
06:24 51.0110 2.7490 104° East 537 618 37,000  Level FlightAware
06:24 50.9950 2.8490 104° East 537 618 37,000  Level FlightAware
06:25 50.9690 3.0150 104° East 536 617 37,000  Level FlightAware
06:26 50.9450 3.1680 104° East 536 617 37,000  Level FlightAware
06:27 50.9180 3.3350 104° East 536 617 37,000  Level FlightAware
06:27 50.8930 3.4870 105° East 536 617 37,000  Level FlightAware
06:28 50.8710 3.6230 104° East 535 616 37,000  Level FlightAware
06:29 50.8420 3.7950 105° East 534 615 37,000  Level FlightAware
06:29 50.8190 3.9340 105° East 532 612 37,000  Level FlightAware
06:30 50.7917 4.0953 105° East 532 612 37,000  Level FlightAware ADS-B
06:30 50.7724 4.2094 105° East 532 612 37,000  Level FlightAware ADS-B
06:31 50.7428 4.3887 105° East 532 612 37,000  Level FlightAware ADS-B
06:32 50.7120 4.5716 105° East 530 610 37,000  Level FlightAware ADS-B
06:33 50.6864 4.6999 107° East 530 610 37,000  Level FlightAware ADS-B
06:34 50.6390 4.9010 110° East 530 610 37,000  Level FlightAware
06:34 50.6040 5.0500 110° East 531 611 37,000  Level FlightAware
06:35 50.5658 5.2116 110° East 533 613 37,000  Level FlightAware ADS-B
06:36 50.5150 5.3370 122° Southeast 526 605 37,000  Level FlightAware
06:36 50.5004 5.3712 124° Southeast 526 605 37,000  Level FlightAware ADS-B
06:36 50.4620 5.4610 124° Southeast 527 606 37,000  Level FlightAware
06:37 50.4350 5.5269 123° Southeast 527 606 37,000  Level FlightAware ADS-B
06:38 50.3483 5.7230 125° Southeast 527 606 37,000  Level FlightAware ADS-B
06:38 50.2810 5.8710 125° Southeast 525 604 37,000  Level FlightAware
06:39 50.2240 5.9960 125° Southeast 526 605 37,000  Level FlightAware
06:40 50.1690 6.1170 125° Southeast 527 606 37,000  Level FlightAware
06:41 50.1050 6.2560 126° Southeast 528 608 37,000  Level FlightAware
06:41 50.0450 6.3860 126° Southeast 528 608 37,000  Level FlightAware
06:43 49.9240 6.6450 126° Southeast 530 610 37,000  Level FlightAware
06:43 49.8690 6.7640 126° Southeast 531 611 37,000  Level FlightAware
06:44 49.8060 6.8960 126° Southeast 526 605 37,000  Level FlightAware
06:45 49.7470 7.0190 127° Southeast 528 608 37,000  Level FlightAware
06:45 49.6880 7.1430 126° Southeast 528 608 37,000  Level FlightAware
06:46 49.6220 7.2790 127° Southeast 533 613 37,000  Level FlightAware
06:47 49.5640 7.3990 127° Southeast 533 613 37,000  Level FlightAware
06:48 49.4970 7.5370 127° Southeast 534 615 37,000  Level FlightAware
06:48 49.4380 7.6580 127° Southeast 535 616 37,000  Level FlightAware
06:49 49.3800 7.7750 127° Southeast 535 616 37,000  Level FlightAware
06:50 49.3210 7.8950 127° Southeast 534 615 37,000  Level FlightAware
06:50 49.2540 8.0300 127° Southeast 533 613 37,000  Level FlightAware
06:51 49.1870 8.1650 127° Southeast 530 610 37,000  Level FlightAware
06:52 49.1230 8.2930 127° Southeast 530 610 37,000  Level FlightAware
06:52 49.0630 8.4120 128° Southeast 531 611 37,000  Level FlightAware
06:53 49.0120 8.5120 128° Southeast 529 609 37,000  Level FlightAware
06:56 48.8229 8.9883 121° Southeast  Level Estimated
06:57 48.7483 9.1741 121° Southeast  Level Estimated
06:57 48.5510 9.1190 121° Southeast 516 594 37,000  Level FlightAware
06:58 48.4470 9.2460 141° Southeast 520 598 37,000  Level FlightAware
06:59 48.3690 9.3300 144° Southeast 518 596 37,000  Level FlightAware
06:59 48.2920 9.4150 144° Southeast 517 595 37,000  Level FlightAware
07:00 48.2040 9.5110 144° Southeast 515 593 37,000  Level FlightAware
07:01 48.1280 9.5950 144° Southeast 514 592 37,000  Level FlightAware
07:02 48.0440 9.6880 143° Southeast 514 592 37,000  Level FlightAware
07:02 47.9670 9.7710 144° Southeast 515 593 37,000  Level FlightAware
07:03 47.9040 9.8400 144° Southeast 516 594 37,000  Level FlightAware
07:04 47.8010 9.9500 144° Southeast 516 594 37,000  Level FlightAware
07:04 47.7270 10.0300 144° Southeast 515 593 37,000  Level FlightAware
07:05 47.6420 10.1190 145° Southeast 516 594 37,000  Level FlightAware
07:06 47.5720 10.1930 144° Southeast 516 594 37,000  Level FlightAware
07:06 47.4810 10.2890 145° Southeast 516 594 37,000  Level FlightAware
07:07 47.3910 10.3830 145° Southeast 516 594 37,000  Level FlightAware
07:08 47.3140 10.4630 145° Southeast 516 594 37,000  Level FlightAware
07:09 47.2250 10.5570 144° Southeast 516 594 37,000  Level FlightAware
07:09 47.1570 10.6270 145° Southeast 516 594 37,000  Level FlightAware
07:10 47.0730 10.7140 145° Southeast 518 596 37,000  Level FlightAware
07:11 46.9820 10.8100 144° Southeast 518 596 37,000  Level FlightAware
07:11 46.9120 10.8820 145° Southeast 512 589 37,000  Level FlightAware
07:12 46.8230 10.9740 145° Southeast 513 590 37,000  Level FlightAware
07:13 46.7460 11.0530 145° Southeast 513 590 37,000  Level FlightAware
07:13 46.6720 11.1290 145° Southeast 521 600 37,000  Level FlightAware
07:14 46.5750 11.2290 145° Southeast 514 592 37,000  Level FlightAware
07:15 46.4970 11.3100 144° Southeast 517 595 37,000  Level FlightAware
07:15 46.4260 11.4080 136° Southeast 522 601 37,000  Level FlightAware
07:16 46.3570 11.5280 130° Southeast 529 609 37,000  Level FlightAware
07:17 46.2960 11.6350 130° Southeast 530 610 37,000  Level FlightAware
07:18 46.2260 11.7560 130° Southeast 531 611 37,000  Level FlightAware
07:18 46.1520 11.8820 130° Southeast 530 610 37,000  Level FlightAware
07:19 46.0880 11.9920 130° Southeast 525 604 37,000  Level FlightAware
07:20 46.0250 12.0990 130° Southeast 525 604 37,000 60 Level FlightAware
07:20 45.9540 12.2170 131° Southeast 529 609 37,100  Climbing FlightAware
07:21 45.8880 12.3280 130° Southeast 532 612 37,000 -120 Descending FlightAware
07:22 45.8160 12.4460 131° Southeast 523 602 37,000  Level FlightAware
07:23 45.7530 12.5500 131° Southeast 521 600 37,000  Level FlightAware
07:23 45.6890 12.6550 131° Southeast 520 598 37,000  Level FlightAware
07:24 45.6180 12.7730 131° Southeast 521 600 37,000  Level FlightAware
07:25 45.5600 12.8680 131° Southeast 513 590 37,000 300 Level FlightAware
07:25 45.4890 12.9790 132° Southeast 512 589 37,400 840 Climbing FlightAware
07:26 45.4180 13.0910 132° Southeast 507 583 38,200 960 Climbing FlightAware
07:27 45.3470 13.2030 132° Southeast 507 583 38,900 540 Climbing FlightAware
07:27 45.2840 13.3030 132° Southeast 507 583 39,000 60 Climbing FlightAware
07:28 45.2250 13.4000 131° Southeast 506 582 39,000  Level FlightAware
07:29 45.1630 13.5220 126° Southeast 506 582 39,000  Level FlightAware
07:30 45.1090 13.6270 126° Southeast 500 575 39,000  Level FlightAware
07:30 45.0510 13.7400 126° Southeast 506 582 39,000  Level FlightAware
07:31 44.9870 13.8580 127° Southeast 512 589 39,000  Level FlightAware
07:32 44.9330 13.9610 126° Southeast 516 594 39,000  Level FlightAware
07:32 44.8740 14.0760 126° Southeast 514 592 39,000  Level FlightAware
07:33 44.8230 14.1760 126° Southeast 516 594 39,000  Level FlightAware
07:34 44.7630 14.2940 126° Southeast 516 594 39,000  Level FlightAware
07:34 44.6920 14.4320 126° Southeast 520 598 39,000  Level FlightAware
07:35 44.6370 14.5390 126° Southeast 520 598 39,000  Level FlightAware
07:36 44.5710 14.6650 126° Southeast 516 594 39,000  Level FlightAware
07:36 44.5260 14.7500 127° Southeast 514 592 39,000  Level FlightAware
07:37 44.4560 14.8830 126° Southeast 514 592 39,000  Level FlightAware
07:38 44.4100 14.9720 126° Southeast 514 592 39,000  Level FlightAware
07:39 44.3100 15.1580 127° Southeast 39,000  Level FlightAware
07:41 44.1520 15.4530 127° Southeast 505 581 39,000  Level FlightAware
07:41 44.1040 15.5410 127° Southeast 505 581 39,000  Level FlightAware
07:42 44.0500 15.6410 127° Southeast 506 582 39,000  Level FlightAware
07:43 43.9790 15.7710 127° Southeast 504 580 39,000  Level FlightAware
07:44 43.9210 15.8760 127° Southeast 503 579 39,000  Level FlightAware
07:44 43.8550 15.9970 127° Southeast 505 581 39,000  Level FlightAware
07:45 43.7980 16.0990 128° Southeast 507 583 39,000  Level FlightAware
07:46 43.7420 16.2020 127° Southeast 510 587 39,000  Level FlightAware
07:46 43.6780 16.3160 128° Southeast 512 589 39,000  Level FlightAware
07:47 43.6250 16.4120 127° Southeast 515 593 39,000  Level FlightAware
07:48 43.5610 16.5270 127° Southeast 515 593 39,000  Level FlightAware
07:48 43.4970 16.6420 127° Southeast 516 594 39,000  Level FlightAware
07:49 43.4480 16.7290 128° Southeast 511 588 39,000  Level FlightAware
07:50 43.3810 16.8470 128° Southeast 515 593 39,000  Level FlightAware
07:51 43.3140 16.9640 128° Southeast 516 594 39,000  Level FlightAware
07:51 43.2530 17.0720 128° Southeast 516 594 39,000  Level FlightAware
07:52 43.1880 17.1860 128° Southeast 518 596 39,000  Level FlightAware
07:53 43.1290 17.2900 128° Southeast 519 597 39,000  Level FlightAware
07:53 43.0630 17.4080 127° Southeast 518 596 39,000  Level FlightAware
07:54 43.0030 17.5120 128° Southeast 518 596 39,000  Level FlightAware
07:55 42.9380 17.6260 128° Southeast 517 595 39,000  Level FlightAware
07:55 42.8810 17.7240 128° Southeast 515 593 39,000  Level FlightAware
07:56 42.8190 17.8300 129° Southeast 513 590 39,000  Level FlightAware
07:57 42.7640 17.9240 129° Southeast 513 590 39,000  Level FlightAware
07:58 42.6940 18.0440 128° Southeast 512 589 39,000  Level FlightAware
07:58 42.6270 18.1580 129° Southeast 513 590 39,000  Level FlightAware
07:59 42.5690 18.2560 129° Southeast 511 588 39,000  Level FlightAware
08:00 42.5010 18.3550 133° Southeast 510 587 39,000  Level FlightAware
08:00 42.4280 18.4550 135° Southeast 511 588 39,000  Level FlightAware
08:01 42.3610 18.5440 136° Southeast 511 588 39,000  Level FlightAware
08:02 42.2840 18.6480 135° Southeast 512 589 39,000  Level FlightAware
08:02 42.2270 18.7240 135° Southeast 512 589 39,000  Level FlightAware
08:03 42.1500 18.8270 135° Southeast 513 590 39,000  Level FlightAware
08:04 42.0920 18.9030 136° Southeast 514 592 39,000  Level FlightAware
08:05 42.0080 19.0150 135° Southeast 514 592 39,000  Level FlightAware
08:05 41.9400 19.1040 136° Southeast 514 592 39,000  Level FlightAware
08:06 41.8630 19.2060 135° Southeast 514 592 39,000  Level FlightAware
08:07 41.7930 19.2970 136° Southeast 514 592 39,000  Level FlightAware
08:07 41.7170 19.3970 135° Southeast 514 592 39,000  Level FlightAware
08:08 41.6540 19.4800 135° Southeast 515 593 39,000  Level FlightAware
08:09 41.5720 19.5870 136° Southeast 515 593 39,000  Level FlightAware
08:09 41.5030 19.6750 136° Southeast 516 594 39,000  Level FlightAware
08:10 41.4480 19.7460 136° Southeast 515 593 39,000  Level FlightAware
08:11 41.3400 19.8860 136° Southeast 515 593 39,000  Level FlightAware
08:12 41.2630 19.9840 136° Southeast 514 592 39,000  Level FlightAware
08:12 41.1950 20.0700 136° Southeast 514 592 39,000  Level FlightAware
08:13 41.1190 20.1670 136° Southeast 514 592 39,000  Level FlightAware
08:14 41.0620 20.2390 136° Southeast 513 590 39,000  Level FlightAware
08:15 40.9820 20.3400 136° Southeast 513 590 39,000  Level FlightAware
08:15 40.9020 20.4400 137° Southeast 514 592 39,000  Level FlightAware
08:16 40.8330 20.5260 137° Southeast 514 592 39,000  Level FlightAware
08:17 40.7590 20.6190 136° Southeast 515 593 39,000  Level FlightAware
08:17 40.6880 20.7060 137° Southeast 514 592 39,000  Level FlightAware
08:18 40.6190 20.7910 137° Southeast 514 592 39,000  Level FlightAware
08:19 40.5440 20.8840 137° Southeast 509 586 39,000  Level FlightAware
08:19 40.4760 20.9670 137° Southeast 514 592 39,000  Level FlightAware
08:20 40.4030 21.0540 138° Southeast 512 589 39,000  Level FlightAware
08:21 40.3210 21.1460 139° Southeast 511 588 39,000  Level FlightAware
08:22 40.2390 21.2400 139° Southeast 508 585 39,000  Level FlightAware
08:22 40.1680 21.3210 139° Southeast 500 575 39,000  Level FlightAware
08:23 40.0980 21.4010 139° Southeast 499 574 39,000  Level FlightAware
08:24 40.0200 21.4900 139° Southeast 497 572 39,000  Level FlightAware
08:24 39.9500 21.5700 139° Southeast 496 571 39,000  Level FlightAware
08:26 39.8160 21.7210 139° Southeast 496 571 39,000  Level FlightAware
08:27 39.7200 21.8300 139° Southeast 497 572 39,000  Level FlightAware
08:27 39.6390 21.9210 139° Southeast 498 573 39,000  Level FlightAware
08:28 39.5590 22.0110 139° Southeast 506 582 39,000  Level FlightAware
08:29 39.4880 22.0900 139° Southeast 506 582 39,000  Level FlightAware
08:30 39.4060 22.1800 140° Southeast 508 585 39,000  Level FlightAware
08:30 39.3340 22.2600 139° Southeast 510 587 39,000  Level FlightAware
08:31 39.2530 22.3500 139° Southeast 513 590 39,000  Level FlightAware
08:32 39.1790 22.4310 140° Southeast 507 583 39,000  Level FlightAware
08:32 39.1050 22.5100 140° Southeast 510 587 39,000  Level FlightAware
08:33 39.0310 22.5910 140° Southeast 513 590 39,000  Level FlightAware
08:34 38.9580 22.6950 132° Southeast 520 598 39,000  Level FlightAware
08:34 38.8890 22.8040 129° Southeast 520 598 39,000  Level FlightAware
08:35 38.8430 22.8770 129° Southeast 519 597 39,000  Level FlightAware
08:36 38.7650 22.9970 130° Southeast 521 600 39,000  Level FlightAware
08:37 38.6940 23.1030 131° Southeast 521 600 39,000  Level FlightAware
08:37 38.6300 23.1970 131° Southeast 521 600 39,000  Level FlightAware
08:38 38.5610 23.3020 130° Southeast 521 600 39,000  Level FlightAware
08:39 38.4990 23.3970 130° Southeast 523 602 39,000  Level FlightAware
08:39 38.4390 23.4890 130° Southeast 523 602 39,000  Level FlightAware
08:40 38.3670 23.6000 130° Southeast 522 601 39,000  Level FlightAware
08:41 38.3050 23.6960 129° Southeast 522 601 39,000  Level FlightAware
08:41 38.2370 23.7980 130° Southeast 520 598 39,000  Level FlightAware
08:42 38.1750 23.8910 130° Southeast 519 597 39,000  Level FlightAware
08:43 38.1130 23.9850 130° Southeast 520 598 39,000  Level FlightAware
08:44 38.0430 24.0930 129° Southeast 521 600 39,000  Level FlightAware
08:44 37.9890 24.1940 124° Southeast 521 600 39,000  Level FlightAware
08:45 37.9340 24.2960 124° Southeast 520 598 39,000  Level FlightAware
08:46 37.8740 24.4060 125° Southeast 519 597 39,000  Level FlightAware
08:46 37.8180 24.5040 126° Southeast 518 596 39,000  Level FlightAware
08:47 37.7530 24.6180 126° Southeast 518 596 39,000  Level FlightAware
08:48 37.6980 24.7180 125° Southeast 517 595 39,000  Level FlightAware
08:48 37.6380 24.8260 125° Southeast 516 594 39,000  Level FlightAware
08:49 37.5840 24.9230 125° Southeast 517 595 39,000  Level FlightAware
08:50 37.5290 25.0230 125° Southeast 518 596 39,000  Level FlightAware
08:50 37.4740 25.1230 125° Southeast 519 597 39,000  Level FlightAware
08:51 37.4100 25.2380 125° Southeast 518 596 39,000  Level FlightAware
08:52 37.3560 25.3360 125° Southeast 519 597 39,000  Level FlightAware
08:53 37.3000 25.4350 125° Southeast 519 597 39,000  Level FlightAware
08:53 37.2400 25.5420 125° Southeast 520 598 39,000  Level FlightAware
08:54 37.1850 25.6400 125° Southeast 520 598 39,000  Level FlightAware
08:55 37.1200 25.7560 125° Southeast 521 600 39,000  Level FlightAware
08:55 37.0650 25.8530 125° Southeast 522 601 39,000  Level FlightAware
08:56 37.0080 25.9530 125° Southeast 522 601 39,000  Level FlightAware
08:57 36.9470 26.0610 125° Southeast 522 601 39,000  Level FlightAware
08:58 36.8750 26.1870 126° Southeast 523 602 39,000  Level FlightAware
08:58 36.8070 26.3050 126° Southeast 524 603 39,000  Level FlightAware
08:59 36.7490 26.4070 125° Southeast 525 604 39,000  Level FlightAware
09:00 36.6950 26.5020 125° Southeast 526 605 39,000  Level FlightAware
09:01 36.6320 26.6120 125° Southeast 528 608 39,000  Level FlightAware
09:01 36.5750 26.7100 126° Southeast 530 610 39,000  Level FlightAware
09:02 36.5100 26.8230 126° Southeast 532 612 39,000  Level FlightAware
09:03 36.4520 26.9220 126° Southeast 533 613 39,000  Level FlightAware
09:03 36.4050 27.0050 125° Southeast 535 616 39,000  Level FlightAware
09:04 36.3290 27.1350 126° Southeast 536 617 39,000  Level FlightAware
09:05 36.2820 27.2190 125° Southeast 536 617 39,000  Level FlightAware
09:05 36.2070 27.3470 126° Southeast 536 617 39,000  Level FlightAware
09:06 36.1290 27.4820 126° Southeast 535 616 39,000  Level FlightAware
09:07 36.0810 27.5680 125° Southeast 535 616 39,000  Level FlightAware
09:08 36.0330 27.6530 125° Southeast 535 616 39,000  Level FlightAware
09:08 35.9840 27.7380 125° Southeast 535 616 39,000  Level FlightAware
09:09 35.9360 27.8230 125° Southeast 535 616 39,000  Level FlightAware
09:10 35.8140 28.0090 129° Southeast 543 625 39,000  Level FlightAware
09:11 35.7540 28.1090 126° Southeast 542 624 39,000  Level FlightAware
09:11 35.6870 28.2200 127° Southeast 540 621 39,000  Level FlightAware
09:12 35.6270 28.3190 127° Southeast 540 621 39,000  Level FlightAware
09:13 35.5670 28.4170 127° Southeast 539 620 39,000  Level FlightAware
09:13 35.5010 28.5270 126° Southeast 540 621 39,000  Level FlightAware
09:14 35.4400 28.6260 127° Southeast 542 624 39,000  Level FlightAware
09:15 35.3700 28.7390 127° Southeast 543 625 39,000  Level FlightAware
09:15 35.3100 28.8360 127° Southeast 543 625 39,000  Level FlightAware
09:16 35.2500 28.9340 127° Southeast 542 624 39,000  Level FlightAware
09:17 35.1630 29.0740 127° Southeast 537 618 39,000  Level FlightAware
09:18 35.1160 29.1530 126° Southeast 537 618 39,000  Level FlightAware
09:19 35.0380 29.2750 128° Southeast 537 618 39,000  Level FlightAware
09:19 34.9870 29.3580 127° Southeast 542 624 39,000  Level FlightAware
09:20 34.9220 29.4620 127° Southeast 542 624 39,000  Level FlightAware
09:21 34.8450 29.5850 127° Southeast 537 618 39,000  Level FlightAware
09:21 34.7830 29.6840 127° Southeast 536 617 39,000  Level FlightAware
09:22 34.7120 29.7970 127° Southeast 538 619 39,000  Level FlightAware
09:23 34.6510 29.8940 127° Southeast 538 619 39,000  Level FlightAware
09:23 34.5920 29.9890 127° Southeast 538 619 39,000  Level FlightAware
09:24 34.5430 30.0780 124° Southeast 540 621 39,000  Level FlightAware
09:25 34.4960 30.1760 120° Southeast 545 627 39,000  Level FlightAware
09:26 34.4220 30.3290 120° Southeast 546 628 39,000  Level FlightAware
09:26 34.3720 30.4340 120° Southeast 545 627 39,000  Level FlightAware
09:27 34.3210 30.5420 120° Southeast 544 626 39,000  Level FlightAware
09:29 34.1978 30.7865 121° Southeast  Level Estimated
09:29 34.1980 30.7950 121° Southeast 542 624 39,000  Level FlightAware
09:29 34.1460 30.9020 120° Southeast 541 623 39,000  Level FlightAware
09:30 34.0880 31.0200 121° Southeast 539 620 39,000  Level FlightAware
09:31 34.0340 31.1290 121° Southeast 538 619 39,000  Level FlightAware
09:31 33.9770 31.2450 121° Southeast 540 621 39,000  Level FlightAware
09:32 33.9080 31.3860 120° Southeast 539 620 39,000  Level FlightAware
09:33 33.8630 31.4770 121° Southeast 540 621 39,000  Level FlightAware
09:34 33.7520 31.7020 121° Southeast 539 620 39,000 -120 Level FlightAware
09:35 33.6690 31.8680 121° Southeast 539 620 38,800 -840 Descending FlightAware
09:38 33.5092 32.1686 122° Southeast  Level Estimated
09:38 33.4650 32.2750 122° Southeast 534 615 36,000  Level FlightAware
09:39 33.4150 32.3730 121° Southeast 531 611 35,400 -720 Descending FlightAware
09:40 33.3560 32.4890 121° Southeast 523 602 35,000 -300 Descending FlightAware
09:40 33.3020 32.5950 121° Southeast 520 598 35,000 -120 Level FlightAware
09:41 33.2450 32.7050 122° Southeast 520 598 34,900 -960 Descending FlightAware
09:42 33.1930 32.8060 122° Southeast 510 587 33,700 -960 Descending FlightAware
09:42 33.1560 32.8800 121° Southeast 510 587 33,700 -1,980 Level FlightAware
09:43 33.0870 33.0120 122° Southeast 480 552 30,800 -2,340 Descending FlightAware
09:44 33.0300 33.1080 125° Southeast 473 544 29,700 -1,440 Descending FlightAware
09:45 32.9770 33.1970 125° Southeast 461 531 28,700 -1,620 Descending FlightAware
09:45 32.9220 33.2910 125° Southeast 458 527 27,600 -1,680 Descending FlightAware
09:46 32.8700 33.3810 125° Southeast 447 514 26,400 -1,980 Descending FlightAware
09:47 32.8220 33.4640 125° Southeast 441 507 24,800 -2,280 Descending FlightAware
09:47 32.7710 33.5510 125° Southeast 434 499 23,200 -2,220 Descending FlightAware
09:48 32.7240 33.6310 125° Southeast 433 498 21,700 -2,280 Descending FlightAware
09:49 32.6720 33.7180 125° Southeast 431 496 20,000 -2,280 Descending FlightAware
09:50 32.6260 33.7960 125° Southeast 427 491 18,500 -2,100 Descending FlightAware
09:50 32.5830 33.8690 125° Southeast 421 484 17,200 -2,220 Descending FlightAware
09:51 32.5370 33.9470 125° Southeast 417 480 15,600 -2,340 Descending FlightAware
09:52 32.4850 34.0330 126° Southeast 417 480 13,900 -2,220 Descending FlightAware
09:52 32.4360 34.1150 125° Southeast 403 464 12,300 -2,160 Descending FlightAware
09:53 32.3940 34.1860 125° Southeast 386 444 10,900 -1,500 Descending FlightAware
09:54 32.3560 34.2530 124° Southeast 346 398 10,300 -780 Descending FlightAware
09:54 32.3190 34.3160 125° Southeast 306 352 9,800 -900 Descending FlightAware
09:55 32.3050 34.3380 127° Southeast 303 349 9,400 -600 Descending FlightAware
09:55 32.2770 34.3840 126° Southeast 303 349 9,300 -120 Descending FlightAware
09:56 32.2560 34.4190 125° Southeast 303 349 9,300  Level FlightAware
09:56 32.2420 34.4410 127° Southeast 303 349 9,300  Level FlightAware
09:57 32.2210 34.4760 125° Southeast 303 349 9,300 -1,920 Level FlightAware
09:58 32.1680 34.5870 119° Southeast 5,500 -2,460 Descending FlightAware
09:58 32.1480 34.6250 122° Southeast 262 302 5,200 -300 Descending FlightAware
09:59 32.1290 34.6580 124° Southeast 249 287 5,200  Level FlightAware
09:59 32.1110 34.6880 125° Southeast 248 285 5,200  Level FlightAware
10:00 32.0850 34.7350 123° Southeast 243 280 5,200  Level FlightAware
10:00 32.0760 34.7510 124° Southeast 240 276 5,200 -180 Level FlightAware
10:01 32.0540 34.7840 128° Southeast 236 272 5,100 -240 Descending FlightAware
10:01 32.0400 34.8000 136° Southeast 236 272 5,000 -420 Descending FlightAware
10:02 32.0180 34.8230 138° Southeast 234 269 4,800 -900 Descending FlightAware
10:02 31.9940 34.8500 136° Southeast 238 274 4,200 -1,560 Descending FlightAware
10:03 31.9740 34.9010 115° Southeast 238 274 2,900 -1,380 Descending FlightAware
10:03 31.9810 34.9370 77° East 220 253 2,500 -480 Descending FlightAware
10:04 31.9860 34.9630 77° East 220 253 2,500  Level FlightAware
10:06 32.0095 34.8769 288° West  Level Estimated
10:07 32.0095 34.8769 270° West  Level Estimated